Arago, OR

1:47 AM PDT on October 21, 2014 (GMT -0700)
Arago | Change Station
CLOSE
Current Station
Personal Weather Station
Location: Myrtle Point, OR
Elevation: 175 ft
Nearby Weather Stations

Elev 175 ft 43.09 °N, 124.20 °W | Updated 1 minute ago

Mostly Cloudy
Mostly Cloudy
51.0 °F
Feels Like 51.0 °F
N
0.0
Wind Variable Wind from SE
Gusts 0.0 mph

Today
High -- | Low -- °F
--% Chance of Precip.
Yesterday
High -- | Low -- °F
Precip. -- in
7:37 AM 6:24 PM
Waning Crescent, 6% visible
Pressure 29.96 in
Visibility 5.0 miles
Clouds Mostly Cloudy 2900 ft
Overcast 3500 ft
Dew Point 50 °F
Humidity 98%
Rainfall 0.00 in
Snow Depth Not available.
UV 0 out of 12
Pollen .90 out of 12
Air Quality Not available.
Flu Activity Sporadic
METAR KOTH 210835Z 16006KT 5SM BKN029 OVC035 12/12 A2996 RMK AO1 P0004

More Conditions Fewer Conditions

Pressure 29.96 in
Visibility 5.0 miles
Clouds Mostly Cloudy 2900 ft
Overcast 3500 ft
Dew Point 50 °F
Humidity 98%
Rainfall 0.00 in
Snow Depth Not available.
UV 0 out of 12
Pollen .90 out of 12
Air Quality Not available.
Flu Activity Sporadic
METAR KOTH 210835Z 16006KT 5SM BKN029 OVC035 12/12 A2996 RMK AO1 P0004

More Conditions Fewer Conditions

10-Day Weather Forecast

Almanac

Astronomy

Oct. 21, 2014 Rise Set
Actual Time 7:37 AM PDT 6:24 PM PDT
Civil Twilight 7:08 AM PDT 6:52 PM PDT
Nautical Twilight 6:35 AM PDT 7:26 PM PDT
Astronomical Twilight 6:02 AM PDT 7:58 PM PDT
Moon 5:24 AM PDT 5:23 PM PDT
Length of Visible Light 11h 44m
Length of Day
10h 46m
Tomorrow will be 2m 46s shorter.
Waning Crescent, 6% of the Moon is Illuminated
Today
Waning Crescent
Oct 23
New
Oct 30
First Quarter
Nov 6
Full
Nov 14
Last Quarter

Today's Extremes

State Highs State Lows

Community

WunderPhotos

Upload Photos

1,763,619 photos uploaded!

Nearby

Snow Depth

Station Depth Elevation
Bigelow Camp 0 in 5120 ft
King Mountain 0 in 4000 ft
Holland Meadows 0 in 4900 ft
Big Red Mountain 0 in 6250 ft
Fish Lake 0 in 4665 ft

Earthquake Activity

City Distance Mag. Time & Date
No recent earthquake activity has been reported nearby.
Minimum magnitude displayed is 2.5.

Coastal Water Temperatures

Place Temperature
Port Orford, OR 57.9 °F
Charleston, OR 57.9 °F
South Beach, OR 60.1 °F

Nearby Weather Stations